Time;durP1;ratioP1;P1;durP2;ratioP2;P2;SDS_P1;SDS_P2;PMS_P1;PMS_P2;Temp;Humidity;BMP_temperature;BMP_pressure;BME280_temperature;BME280_humidity;BME280_pressure;Samples;Min_cycle;Max_cycle;Signal;HPM_P1;HPM_P2
2022/06/04 00:01:47;;;;;;;2.45;1.52;;;;;;;22.21;100.00;99248.88;4752174;30;20723;-95
2022/06/04 00:04:15;;;;;;;2.23;1.47;;;;;;;22.17;100.00;99253.31;4753997;30;20243;-94
2022/06/04 00:06:42;;;;;;;2.08;1.75;;;;;;;22.08;100.00;99257.84;4754814;30;20243;-95
2022/06/04 00:09:10;;;;;;;2.08;1.52;;;;;;;21.98;100.00;99258.09;4739982;30;20304;-95
2022/06/04 00:17:25;;;;;;;2.67;1.50;;;;;;;21.87;100.00;99255.53;4733350;30;20240;-93
2022/06/04 00:19:52;;;;;;;1.75;1.50;;;;;;;21.87;100.00;99254.72;4752224;30;20782;-93
2022/06/04 00:22:19;;;;;;;1.85;1.40;;;;;;;22.00;100.00;99242.22;4751802;30;20247;-94
2022/06/04 00:24:46;;;;;;;4.70;1.40;;;;;;;22.04;100.00;99256.84;4736704;30;20611;-95
2022/06/04 00:27:19;;;;;;;3.45;1.60;;;;;;;21.77;100.00;99261.16;4754273;30;20732;-94
2022/06/04 00:29:46;;;;;;;2.00;1.30;;;;;;;21.83;100.00;99265.44;4739801;30;20250;-93
2022/06/04 00:32:14;;;;;;;1.88;1.45;;;;;;;21.82;100.00;99261.06;4753500;29;20274;-94
2022/06/04 00:34:41;;;;;;;1.48;1.35;;;;;;;21.85;100.00;99260.47;4759841;30;20238;-94
2022/06/04 00:37:08;;;;;;;2.72;1.40;;;;;;;21.70;100.00;99268.91;4755724;30;20303;-95
2022/06/04 00:39:35;;;;;;;3.03;1.63;;;;;;;21.63;100.00;99271.25;4754235;30;20331;-95
2022/06/04 00:42:09;;;;;;;2.75;1.40;;;;;;;21.85;100.00;99279.56;4753662;30;20231;-93
2022/06/04 00:45:13;;;;;;;3.25;1.40;;;;;;;21.78;100.00;99279.16;4754289;30;20251;-94
2022/06/04 00:47:41;;;;;;;2.38;1.50;;;;;;;21.89;100.00;99286.00;4754058;30;20258;-95
2022/06/04 00:50:09;;;;;;;2.45;1.30;;;;;;;21.71;100.00;99283.38;4751906;29;20240;-93
2022/06/04 00:52:36;;;;;;;1.55;1.45;;;;;;;21.60;100.00;99285.50;4754126;30;20338;-95
2022/06/04 00:55:05;;;;;;;2.13;1.50;;;;;;;21.53;100.00;99287.78;4740205;30;20246;-94
2022/06/04 00:57:44;;;;;;;1.47;1.37;;;;;;;21.58;100.00;99284.16;4768244;30;20248;-92
2022/06/04 01:00:22;;;;;;;1.50;1.40;;;;;;;21.53;100.00;99290.50;4768681;30;20247;-95
2022/06/04 01:03:20;;;;;;;1.92;1.50;;;;;;;21.49;100.00;99298.47;4742239;30;20701;-93
2022/06/04 01:06:22;;;;;;;2.30;1.50;;;;;;;21.41;100.00;99304.63;4755116;30;20266;-95
2022/06/04 01:09:07;;;;;;;2.47;1.30;;;;;;;21.47;100.00;99308.03;4764023;30;20237;-94
2022/06/04 01:12:10;;;;;;;1.83;1.40;;;;;;;21.44;100.00;99305.94;4761070;30;20244;-95
2022/06/04 01:15:16;;;;;;;1.40;1.27;;;;;;;21.34;100.00;99303.38;4764877;30;20235;-94
2022/06/04 01:17:53;;;;;;;1.50;1.40;;;;;;;21.55;100.00;99296.47;4740060;30;20249;-94
2022/06/04 01:20:57;;;;;;;1.70;1.20;;;;;;;21.24;100.00;99295.34;4755248;29;20246;-93
2022/06/04 01:24:01;;;;;;;1.40;1.30;;;;;;;21.38;100.00;99274.41;4754368;30;20238;-94
2022/06/04 01:26:49;;;;;;;1.30;1.20;;;;;;;21.33;100.00;99279.94;4752630;30;20248;-95
2022/06/04 01:29:20;;;;;;;1.43;1.20;;;;;;;21.18;100.00;99280.22;4755569;30;20330;-93
2022/06/04 01:31:51;;;;;;;1.40;1.20;;;;;;;21.20;100.00;99284.25;4753735;30;20322;-94
2022/06/04 01:34:22;;;;;;;2.03;1.30;;;;;;;21.15;100.00;99286.25;4738277;29;20245;-95
2022/06/04 01:37:00;;;;;;;1.00;1.00;;;;;;;21.01;100.00;99289.69;4753765;30;20716;-95
2022/06/04 01:41:03;;;;;;;1.40;1.30;;;;;;;20.89;100.00;99274.91;4752259;30;20314;-94
2022/06/04 01:42:15;;;;;;;1.40;1.30;;;;;;;20.78;100.00;99281.59;4755009;30;20322;-94
2022/06/04 01:44:43;;;;;;;3.00;1.30;;;;;;;20.73;100.00;99273.50;4738979;30;20235;-94
2022/06/04 01:47:09;;;;;;;1.30;1.00;;;;;;;20.76;100.00;99276.47;4754859;30;20238;-94
2022/06/04 01:49:44;;;;;;;2.47;1.48;;;;;;;20.77;100.00;99282.72;4738688;30;20243;-94
2022/06/04 01:52:37;;;;;;;1.47;1.13;;;;;;;20.73;100.00;99277.03;4757852;30;20246;-94
2022/06/04 01:55:04;;;;;;;1.20;1.10;;;;;;;20.79;100.00;99280.50;4761858;29;20321;-94
2022/06/04 01:57:32;;;;;;;2.53;1.10;;;;;;;20.70;100.00;99269.47;4771142;30;20332;-95
2022/06/04 02:00:04;;;;;;;1.43;1.20;;;;;;;20.62;100.00;99270.94;4756893;30;20281;-95
2022/06/04 02:02:40;;;;;;;1.73;1.33;;;;;;;20.56;100.00;99277.56;4736496;30;20242;-96
2022/06/04 02:05:12;;;;;;;1.30;1.10;;;;;;;20.42;100.00;99278.59;4738909;30;20234;-95
2022/06/04 02:07:43;;;;;;;1.23;1.10;;;;;;;20.34;100.00;99280.06;4768005;30;20237;-95
2022/06/04 02:10:15;;;;;;;1.73;1.20;;;;;;;20.35;100.00;99280.84;4743875;30;20266;-95
2022/06/04 02:12:46;;;;;;;2.30;1.10;;;;;;;20.25;100.00;99276.28;4754714;30;20254;-94
2022/06/04 02:15:17;;;;;;;1.93;1.00;;;;;;;20.12;100.00;99275.09;4753470;30;20238;-94
2022/06/04 02:17:47;;;;;;;1.87;1.20;;;;;;;20.10;100.00;99279.22;4753021;30;20297;-96
2022/06/04 02:20:14;;;;;;;1.57;1.03;;;;;;;20.13;100.00;99279.44;4752630;29;20298;-93
2022/06/04 02:22:42;;;;;;;1.73;1.23;;;;;;;20.12;100.00;99288.69;4752945;30;20245;-94
2022/06/04 02:25:10;;;;;;;1.93;1.20;;;;;;;20.06;100.00;99287.13;4753227;30;20712;-94
2022/06/04 02:27:38;;;;;;;1.20;1.10;;;;;;;20.01;100.00;99289.13;4752833;30;20238;-95
2022/06/04 02:30:07;;;;;;;1.70;1.10;;;;;;;19.95;100.00;99293.00;4747714;29;20328;-95
2022/06/04 02:32:40;;;;;;;2.37;1.30;;;;;;;19.87;100.00;99290.91;4767853;30;20243;-95
2022/06/04 02:35:16;;;;;;;2.37;1.20;;;;;;;19.78;100.00;99288.81;4761120;30;20246;-96
2022/06/04 02:38:08;;;;;;;2.07;1.13;;;;;;;19.72;100.00;99291.88;4760665;30;20242;-95
2022/06/04 02:41:14;;;;;;;1.47;1.20;;;;;;;19.62;100.00;99287.34;4755748;30;20237;-95
2022/06/04 02:43:50;;;;;;;2.27;1.37;;;;;;;19.82;100.00;99286.34;4707492;30;20724;-96
2022/06/04 02:46:24;;;;;;;1.60;1.30;;;;;;;20.08;100.00;99293.09;4755245;29;20265;-96
2022/06/04 02:48:59;;;;;;;1.57;1.23;;;;;;;19.81;100.00;99297.50;4769727;29;20294;-96
2022/06/04 02:51:32;;;;;;;1.97;1.30;;;;;;;19.72;100.00;99295.41;4771076;30;20259;-94
2022/06/04 02:54:03;;;;;;;1.40;1.20;;;;;;;19.68;100.00;99301.72;4755830;30;20286;-96
2022/06/04 02:56:32;;;;;;;1.30;1.20;;;;;;;19.72;100.00;99310.91;4755204;30;20326;-96
2022/06/04 02:59:03;;;;;;;1.40;1.30;;;;;;;19.72;100.00;99309.00;4752846;30;20322;-96
2022/06/04 03:01:32;;;;;;;1.40;1.30;;;;;;;19.75;100.00;99304.88;4755501;30;20292;-95
2022/06/04 03:03:59;;;;;;;1.27;1.17;;;;;;;19.99;100.00;99310.34;4752241;30;20306;-96
2022/06/04 03:06:30;;;;;;;1.60;1.50;;;;;;;19.89;100.00;99311.25;4757828;30;20690;-95
2022/06/04 03:09:00;;;;;;;1.40;1.23;;;;;;;19.83;100.00;99304.25;4758652;30;20246;-95
2022/06/04 03:11:27;;;;;;;1.40;1.30;;;;;;;19.82;100.00;99321.69;4755913;30;20238;-95
2022/06/04 03:13:54;;;;;;;1.60;1.50;;;;;;;19.71;100.00;99309.28;4755938;30;20292;-96
2022/06/04 03:16:21;;;;;;;2.77;1.37;;;;;;;19.78;100.00;99320.63;4753613;30;20295;-96
2022/06/04 03:18:48;;;;;;;1.93;1.40;;;;;;;19.80;100.00;99323.88;4759188;30;20610;-95
2022/06/04 03:21:14;;;;;;;1.57;1.30;;;;;;;19.83;100.00;99326.00;4753792;30;20243;-96
2022/06/04 03:23:41;;;;;;;1.23;1.20;;;;;;;19.91;100.00;99332.72;4751602;30;20328;-95
2022/06/04 03:26:08;;;;;;;1.40;1.30;;;;;;;19.93;100.00;99323.19;4742630;29;20713;-95
2022/06/04 03:28:35;;;;;;;3.80;1.47;;;;;;;19.95;100.00;99315.56;4751005;30;20237;-95
2022/06/04 03:31:02;;;;;;;2.73;1.50;;;;;;;20.00;100.00;99331.81;4769731;30;20329;-96
2022/06/04 03:33:30;;;;;;;1.50;1.40;;;;;;;20.03;100.00;99333.13;4741562;30;20234;-96
2022/06/04 03:35:57;;;;;;;1.30;1.20;;;;;;;20.03;100.00;99338.56;4760143;30;20349;-95
2022/06/04 03:38:24;;;;;;;1.67;1.57;;;;;;;20.05;100.00;99331.75;4745231;29;20236;-95
2022/06/04 03:40:51;;;;;;;1.73;1.50;;;;;;;20.07;100.00;99335.00;4751687;30;20243;-95
2022/06/04 03:43:18;;;;;;;1.50;1.40;;;;;;;20.08;100.00;99333.91;4745353;30;20334;-95
2022/06/04 03:45:45;;;;;;;2.20;1.40;;;;;;;20.08;100.00;99330.38;4756497;30;20272;-96
2022/06/04 03:48:12;;;;;;;1.40;1.30;;;;;;;20.11;100.00;99325.16;4757122;29;20242;-96
2022/06/04 03:50:39;;;;;;;2.43;1.50;;;;;;;20.13;100.00;99333.03;4769719;30;20330;-96
2022/06/04 03:53:06;;;;;;;1.50;1.40;;;;;;;20.20;100.00;99334.28;4760023;30;20272;-96
2022/06/04 03:55:32;;;;;;;1.50;1.40;;;;;;;20.30;100.00;99332.56;4742359;30;20319;-96
2022/06/04 03:57:59;;;;;;;2.60;1.60;;;;;;;20.65;100.00;99327.53;4742817;30;20266;-94
2022/06/04 04:00:29;;;;;;;1.70;1.60;;;;;;;21.68;100.00;99325.69;4744475;30;20259;-94
2022/06/04 04:03:06;;;;;;;2.40;1.60;;;;;;;22.67;100.00;99331.41;4755186;30;20228;-94
2022/06/04 04:05:36;;;;;;;1.60;1.50;;;;;;;23.27;100.00;99334.72;4754529;30;20246;-96
2022/06/04 04:08:06;;;;;;;1.42;1.33;;;;;;;23.42;100.00;99322.59;4737216;29;20334;-95
2022/06/04 04:10:33;;;;;;;1.50;1.40;;;;;;;23.72;100.00;99320.22;4768804;30;20239;-95
2022/06/04 04:13:00;;;;;;;3.15;1.50;;;;;;;24.03;97.36;99330.03;4766615;30;20335;-94
2022/06/04 04:15:27;;;;;;;1.50;1.40;;;;;;;24.17;95.92;99337.38;4736516;30;20317;-94
2022/06/04 04:17:55;;;;;;;2.67;1.52;;;;;;;24.45;93.69;99333.31;4754362;30;20328;-95
2022/06/04 04:20:25;;;;;;;2.40;1.35;;;;;;;24.58;90.83;99334.28;4763844;30;20246;-95
2022/06/04 04:22:53;;;;;;;3.15;1.55;;;;;;;24.84;87.36;99349.63;4754430;30;20292;-94
2022/06/04 04:25:22;;;;;;;1.45;1.20;;;;;;;25.34;83.33;99459.69;4747393;30;20314;-94
2022/06/04 04:27:49;;;;;;;1.55;1.30;;;;;;;25.99;74.91;99400.31;4741147;30;20300;-95
2022/06/04 04:30:20;;;;;;;2.10;1.50;;;;;;;26.23;70.96;99348.41;4766103;30;20274;-96
2022/06/04 04:32:48;;;;;;;1.50;1.40;;;;;;;25.97;70.88;99337.50;4756649;30;20247;-93
2022/06/04 04:35:18;;;;;;;2.45;1.60;;;;;;;25.45;75.46;99336.78;4751592;30;20244;-95
2022/06/04 04:37:46;;;;;;;1.70;1.60;;;;;;;24.94;80.19;99334.84;4753629;30;20240;-94
2022/06/04 04:40:15;;;;;;;1.45;1.35;;;;;;;24.49;84.50;99340.56;4739489;30;20242;-93
2022/06/04 04:42:43;;;;;;;1.60;1.50;;;;;;;24.10;86.95;99346.00;4753929;30;20772;-94
2022/06/04 04:45:10;;;;;;;2.72;1.13;;;;;;;24.00;88.88;99349.00;4744176;30;20321;-93
2022/06/04 04:47:39;;;;;;;1.60;1.45;;;;;;;24.00;90.53;99344.34;4768699;30;20686;-94
2022/06/04 04:50:13;;;;;;;2.85;1.60;;;;;;;23.95;88.70;99355.44;4758342;30;20247;-94
2022/06/04 04:52:40;;;;;;;2.30;1.45;;;;;;;23.78;89.94;99352.59;4749040;30;20235;-93
2022/06/04 04:55:07;;;;;;;1.60;1.40;;;;;;;23.67;92.24;99353.97;4743716;30;20293;-93
2022/06/04 04:57:34;;;;;;;2.45;1.50;;;;;;;23.76;91.96;99349.38;4752101;30;20260;-96
2022/06/04 05:00:01;;;;;;;2.22;1.60;;;;;;;23.86;88.60;99351.84;4754865;29;20761;-95
2022/06/04 05:02:27;;;;;;;1.67;1.40;;;;;;;23.75;91.72;99361.41;4752752;30;20271;-95
2022/06/04 05:04:55;;;;;;;1.42;1.20;;;;;;;23.96;90.06;99361.72;4753916;30;20781;-95
2022/06/04 05:07:22;;;;;;;2.22;1.40;;;;;;;24.06;87.60;99353.22;4751574;30;20436;-95
2022/06/04 05:09:49;;;;;;;1.40;1.30;;;;;;;24.14;86.03;99352.47;4742109;30;20306;-96
2022/06/04 05:12:16;;;;;;;1.35;1.10;;;;;;;24.34;86.07;99360.16;4753878;30;20728;-96
2022/06/04 05:14:42;;;;;;;1.42;1.30;;;;;;;24.39;85.38;99370.16;4739751;30;20289;-95
2022/06/04 05:17:09;;;;;;;1.98;1.63;;;;;;;24.35;84.14;99367.25;4741357;30;20272;-96
2022/06/04 05:19:36;;;;;;;2.17;1.30;;;;;;;24.67;80.51;99365.25;4756315;30;20273;-96
2022/06/04 05:22:03;;;;;;;1.40;1.30;;;;;;;24.62;81.98;99366.19;4747767;29;20711;-96
2022/06/04 05:24:33;;;;;;;3.28;1.25;;;;;;;24.69;80.45;99362.97;4752793;30;20240;-95
2022/06/04 05:27:05;;;;;;;1.58;1.20;;;;;;;24.56;79.70;99360.06;4756374;30;20236;-95
2022/06/04 05:29:33;;;;;;;3.45;1.25;;;;;;;24.47;81.68;99370.19;4754304;30;20329;-95
2022/06/04 05:32:00;;;;;;;1.60;1.30;;;;;;;24.54;83.09;99361.50;4743457;30;20263;-95
2022/06/04 05:34:27;;;;;;;2.70;1.20;;;;;;;24.81;80.25;99368.66;4753136;30;20300;-96
2022/06/04 05:36:54;;;;;;;1.42;1.33;;;;;;;24.83;76.09;99367.19;4769454;30;20736;-95
2022/06/04 05:39:23;;;;;;;2.78;1.30;;;;;;;25.06;75.47;99367.09;4754133;30;20243;-94
2022/06/04 05:41:50;;;;;;;1.63;1.10;;;;;;;25.20;75.79;99365.81;4753799;30;20247;-95
2022/06/04 05:44:19;;;;;;;1.45;1.30;;;;;;;25.25;74.56;99373.06;4758125;29;20271;-95
2022/06/04 05:46:46;;;;;;;1.38;1.20;;;;;;;25.46;70.51;99371.31;4761003;30;20237;-95
2022/06/04 05:49:17;;;;;;;2.95;1.30;;;;;;;25.62;69.78;99372.44;4760937;30;20246;-95
2022/06/04 05:51:45;;;;;;;1.73;1.40;;;;;;;25.61;69.92;99365.38;4755945;30;20245;-96
2022/06/04 05:54:12;;;;;;;1.88;1.17;;;;;;;25.81;67.74;99367.41;4769142;29;20345;-95
2022/06/04 05:56:41;;;;;;;1.40;1.30;;;;;;;25.89;66.90;99364.97;4754194;30;20242;-95
2022/06/04 05:59:11;;;;;;;2.05;1.20;;;;;;;25.91;66.44;99357.22;4739403;30;20534;-96
2022/06/04 06:01:39;;;;;;;1.30;1.15;;;;;;;25.93;66.15;99354.97;4737882;30;20247;-93
2022/06/04 06:04:08;;;;;;;1.40;1.20;;;;;;;25.99;65.84;99362.66;4739940;30;20250;-95
2022/06/04 06:06:39;;;;;;;1.38;1.27;;;;;;;26.15;65.12;99362.94;4753314;30;20718;-96
2022/06/04 06:09:09;;;;;;;1.13;1.02;;;;;;;26.34;63.08;99360.66;4755423;30;20244;-96
2022/06/04 06:11:37;;;;;;;1.70;1.52;;;;;;;26.42;60.91;99361.72;4756952;30;20590;-93
2022/06/04 06:14:07;;;;;;;1.40;1.20;;;;;;;26.30;59.52;99359.69;4742873;30;20355;-94
2022/06/04 06:16:38;;;;;;;1.30;1.20;;;;;;;26.42;60.36;99367.22;4747024;30;20235;-95
2022/06/04 06:19:06;;;;;;;2.15;1.40;;;;;;;26.64;61.76;99364.22;4756759;30;20636;-94
2022/06/04 06:21:34;;;;;;;2.38;1.30;;;;;;;26.90;61.28;99367.63;4753140;30;20239;-94
2022/06/04 06:24:01;;;;;;;1.20;1.10;;;;;;;27.08;59.41;99368.31;4755572;29;20239;-92
2022/06/04 06:26:30;;;;;;;2.58;1.33;;;;;;;27.21;56.93;99361.72;4755734;30;20255;-94
2022/06/04 06:29:00;;;;;;;1.75;1.30;;;;;;;27.30;56.98;99362.47;4740258;30;20246;-94
2022/06/04 06:31:28;;;;;;;1.52;1.10;;;;;;;27.37;57.62;99359.19;4757200;30;20240;-94
2022/06/04 06:33:55;;;;;;;1.75;1.23;;;;;;;27.65;56.30;99364.94;4750995;30;20244;-95
2022/06/04 06:36:22;;;;;;;1.77;1.20;;;;;;;27.82;55.84;99362.81;4744982;30;20319;-95
2022/06/04 06:38:50;;;;;;;1.60;1.33;;;;;;;28.00;54.14;99355.16;4764007;30;20267;-95
2022/06/04 06:41:19;;;;;;;2.33;1.23;;;;;;;27.96;52.44;99357.81;4738710;30;20263;-95
2022/06/04 06:43:47;;;;;;;1.33;1.10;;;;;;;27.85;53.85;99353.91;4756993;30;20289;-96
2022/06/04 06:46:18;;;;;;;1.65;1.20;;;;;;;27.79;53.13;99354.44;4739558;30;20280;-95
2022/06/04 06:48:46;;;;;;;2.53;1.00;;;;;;;27.61;53.38;99375.03;4739881;30;20321;-95
2022/06/04 06:51:18;;;;;;;1.30;1.20;;;;;;;27.69;53.57;99374.13;4757064;30;20258;-95
2022/06/04 06:53:44;;;;;;;1.30;1.20;;;;;;;27.50;54.84;99378.19;4742437;30;20689;-94
2022/06/04 06:56:17;;;;;;;2.90;1.15;;;;;;;27.45;55.39;99380.31;4756644;29;20278;-95
2022/06/04 06:58:45;;;;;;;1.60;1.10;;;;;;;27.52;56.04;99381.41;4757607;30;20236;-95
2022/06/04 07:01:12;;;;;;;2.15;1.10;;;;;;;27.56;56.22;99387.84;4755151;30;20788;-96
2022/06/04 07:03:40;;;;;;;1.27;1.13;;;;;;;27.62;55.05;99384.91;4759528;30;20267;-94
2022/06/04 07:06:11;;;;;;;1.67;1.10;;;;;;;27.61;54.58;99386.84;4767125;29;20229;-95
2022/06/04 07:08:39;;;;;;;2.35;1.08;;;;;;;27.46;53.29;99379.97;4754924;30;20247;-95
2022/06/04 07:11:06;;;;;;;3.05;1.40;;;;;;;27.36;54.73;99372.13;4756877;30;20239;-95
2022/06/04 07:13:33;;;;;;;1.83;1.17;;;;;;;27.33;54.51;99380.25;4753892;30;20232;-94
2022/06/04 07:16:00;;;;;;;1.63;1.20;;;;;;;27.20;53.80;99375.84;4755416;30;20247;-95
2022/06/04 07:18:27;;;;;;;2.03;1.30;;;;;;;27.06;55.60;99376.88;4755699;30;20731;-96
2022/06/04 07:20:55;;;;;;;2.47;1.30;;;;;;;27.03;55.83;99374.00;4769000;29;20713;-95
2022/06/04 07:23:22;;;;;;;2.00;1.20;;;;;;;27.27;55.51;99371.41;4770168;30;20293;-94
2022/06/04 07:25:50;;;;;;;1.73;1.20;;;;;;;27.31;55.76;99379.78;4760691;30;20256;-95
2022/06/04 07:28:17;;;;;;;1.23;1.13;;;;;;;27.39;55.68;99379.69;4756867;29;20643;-95
2022/06/04 07:30:43;;;;;;;1.30;1.20;;;;;;;27.37;54.05;99379.25;4776671;29;20231;-95
2022/06/04 07:33:10;;;;;;;2.10;1.40;;;;;;;27.35;54.50;99372.47;4745082;30;20318;-96
2022/06/04 07:35:37;;;;;;;2.05;1.30;;;;;;;27.32;53.49;99371.19;4754512;30;20243;-96
2022/06/04 07:38:04;;;;;;;2.20;1.20;;;;;;;27.35;55.16;99366.97;4745375;29;20286;-94
2022/06/04 07:40:31;;;;;;;2.22;2.03;;;;;;;27.47;55.43;99361.53;4759806;30;20258;-96
2022/06/04 07:42:57;;;;;;;1.80;1.40;;;;;;;27.49;55.49;99376.56;4744016;30;20705;-94
2022/06/04 07:45:24;;;;;;;2.50;1.40;;;;;;;27.58;54.81;99376.50;4744369;30;20251;-96
2022/06/04 07:47:51;;;;;;;1.63;1.48;;;;;;;27.55;54.16;99380.72;4755683;30;20252;-94
2022/06/04 07:50:18;;;;;;;1.77;1.27;;;;;;;27.57;55.37;99381.22;4753869;29;20251;-95
2022/06/04 07:52:45;;;;;;;1.95;1.30;;;;;;;27.55;55.79;99363.41;4744537;30;20319;-96
2022/06/04 07:55:12;;;;;;;1.73;1.40;;;;;;;27.80;55.70;99380.84;4743316;30;20240;-96
2022/06/04 07:57:40;;;;;;;2.83;1.42;;;;;;;27.78;54.54;99383.91;4747137;30;20671;-95
2022/06/04 08:00:08;;;;;;;2.55;1.35;;;;;;;27.92;54.39;99380.84;4742811;29;20305;-95
2022/06/04 08:02:38;;;;;;;2.95;1.50;;;;;;;28.18;53.36;99383.38;4771906;30;20689;-95
2022/06/04 08:05:05;;;;;;;2.97;1.60;;;;;;;27.75;53.97;99379.09;4755311;30;20316;-95
2022/06/04 08:07:32;;;;;;;1.60;1.40;;;;;;;28.04;54.01;99387.19;4752252;30;20244;-96
2022/06/04 08:09:59;;;;;;;1.45;1.17;;;;;;;28.26;51.92;99383.25;4743218;30;20265;-92
2022/06/04 08:12:30;;;;;;;4.03;1.45;;;;;;;28.60;51.48;99379.28;4755242;30;20297;-95
2022/06/04 08:14:57;;;;;;;3.17;1.67;;;;;;;29.00;50.71;99389.59;4742524;30;20293;-95
2022/06/04 08:17:25;;;;;;;2.22;1.77;;;;;;;29.30;48.01;99383.44;4754625;30;20262;-95
2022/06/04 08:19:52;;;;;;;2.38;1.40;;;;;;;29.56;46.30;99390.50;4758800;30;20240;-94
2022/06/04 08:22:23;;;;;;;3.17;1.30;;;;;;;29.96;46.18;99394.00;4759811;29;20263;-95
2022/06/04 08:24:50;;;;;;;2.17;1.40;;;;;;;30.36;44.30;99390.31;4758864;30;21157;-96
2022/06/04 08:27:17;;;;;;;2.35;1.40;;;;;;;30.89;43.22;99388.88;4753105;30;20294;-96
2022/06/04 08:29:44;;;;;;;2.17;1.40;;;;;;;31.36;42.39;99397.81;4741738;30;20261;-95
2022/06/04 08:32:23;;;;;;;1.88;1.30;;;;;;;31.50;41.46;99399.31;4767509;29;20687;-95
2022/06/04 08:34:50;;;;;;;1.50;1.10;;;;;;;31.82;40.27;99403.56;4744134;30;20232;-95
2022/06/04 08:37:17;;;;;;;2.47;1.02;;;;;;;31.60;39.10;99393.19;4755040;30;20824;-95
2022/06/04 08:39:44;;;;;;;1.63;1.23;;;;;;;31.66;37.79;99392.53;4741118;30;20736;-96
2022/06/04 08:42:10;;;;;;;1.80;1.30;;;;;;;31.36;39.22;99389.53;4753493;29;20288;-95
2022/06/04 08:44:43;;;;;;;1.42;1.20;;;;;;;31.23;39.46;99388.06;4759677;30;20707;-96
2022/06/04 08:47:16;;;;;;;2.25;1.27;;;;;;;30.93;38.74;99379.47;4757587;30;20232;-95
2022/06/04 08:50:13;;;;;;;2.25;1.30;;;;;;;31.21;40.30;99370.22;4749368;30;20324;-95
2022/06/04 08:52:47;;;;;;;2.30;1.25;;;;;;;31.08;39.81;99369.53;4739789;30;20239;-95
2022/06/04 08:58:26;;;;;;;1.48;1.00;;;;;;;30.25;40.98;99372.63;4767995;30;20231;-95
2022/06/04 09:01:05;;;;;;;2.33;1.00;;;;;;;29.69;41.90;99376.28;4755962;30;20259;-95
2022/06/04 09:03:48;;;;;;;2.40;1.15;;;;;;;29.14;43.38;99366.00;4771878;29;20235;-96
2022/06/04 09:06:41;;;;;;;2.00;1.10;;;;;;;29.26;44.21;99363.19;4764793;29;20662;-96
2022/06/04 09:09:17;;;;;;;4.25;1.67;;;;;;;29.10;44.12;99365.09;4765283;30;20228;-96
2022/06/04 09:11:50;;;;;;;3.03;1.08;;;;;;;28.91;44.95;99356.63;4747253;30;20284;-94
2022/06/04 09:14:44;;;;;;;2.50;1.00;;;;;;;28.98;45.03;99372.56;4767869;29;20259;-95
2022/06/04 09:17:17;;;;;;;1.77;1.20;;;;;;;29.10;46.41;99367.03;4742128;30;20254;-95
2022/06/04 09:19:49;;;;;;;4.13;1.30;;;;;;;29.16;45.24;99365.66;4752208;30;20282;-95
2022/06/04 09:22:21;;;;;;;3.63;1.30;;;;;;;28.78;44.20;99361.38;4741378;30;20239;-96
2022/06/04 09:24:49;;;;;;;4.40;1.38;;;;;;;28.95;45.22;99365.00;4752737;29;20263;-95
2022/06/04 09:27:32;;;;;;;2.17;1.23;;;;;;;28.88;45.58;99362.84;4768266;29;20315;-95
2022/06/04 09:30:20;;;;;;;1.30;1.05;;;;;;;29.11;45.21;99365.91;4780291;29;20240;-95
2022/06/04 09:33:10;;;;;;;1.23;1.02;;;;;;;29.22;44.85;99362.28;4756667;30;20236;-95
2022/06/04 09:35:39;;;;;;;2.95;1.00;;;;;;;29.40;44.51;99357.31;4766580;29;20235;-95
2022/06/04 09:38:20;;;;;;;3.38;1.35;;;;;;;29.53;44.20;99350.59;4767671;29;20252;-95
2022/06/04 09:40:59;;;;;;;5.53;1.65;;;;;;;29.59;44.31;99359.41;4767949;30;20574;-95
2022/06/04 09:43:26;;;;;;;3.88;1.20;;;;;;;29.37;44.10;99354.44;4735001;30;20240;-93
2022/06/04 09:46:08;;;;;;;2.22;1.10;;;;;;;29.42;45.50;99360.53;4757809;30;20613;-95
2022/06/04 09:48:38;;;;;;;2.58;1.20;;;;;;;29.43;45.05;99364.91;4754997;30;20304;-94
2022/06/04 09:51:15;;;;;;;8.93;1.48;;;;;;;29.64;41.91;99361.94;4759270;30;20763;-95
2022/06/04 09:53:44;;;;;;;7.72;1.80;;;;;;;29.49;41.94;99365.47;4742458;30;20785;-96
2022/06/04 09:56:16;;;;;;;5.07;1.30;;;;;;;29.55;42.47;99361.28;4756319;29;20247;-95
2022/06/04 09:58:46;;;;;;;5.03;1.02;;;;;;;29.71;42.10;99365.69;4757966;30;20231;-95
2022/06/04 10:01:15;;;;;;;1.30;0.90;;;;;;;29.87;39.57;99364.91;4743291;30;20235;-96
2022/06/04 10:03:45;;;;;;;2.67;1.10;;;;;;;29.96;41.56;99349.00;4758099;30;20764;-95
2022/06/04 10:06:13;;;;;;;3.92;1.30;;;;;;;29.98;41.21;99353.03;4742810;29;20239;-95
2022/06/04 10:11:34;;;;;;;1.58;0.82;;;;;;;30.18;39.71;99363.03;4758597;30;20235;-95
2022/06/04 10:14:01;;;;;;;1.25;0.80;;;;;;;30.02;39.32;99351.16;4755574;30;20319;-93
2022/06/04 10:16:40;;;;;;;2.95;1.00;;;;;;;30.22;39.89;99362.31;4759246;30;20265;-94
2022/06/04 10:19:20;;;;;;;1.75;0.90;;;;;;;30.29;39.74;99357.75;4760947;30;20338;-94
2022/06/04 10:21:49;;;;;;;4.40;1.00;;;;;;;30.35;40.01;99361.88;4761402;30;20338;-94
2022/06/04 10:24:22;;;;;;;2.78;1.30;;;;;;;30.28;40.98;99361.69;4757153;29;20327;-94
2022/06/04 10:27:00;;;;;;;3.28;1.00;;;;;;;30.50;40.61;99361.09;4755842;30;20236;-94
2022/06/04 10:29:47;;;;;;;1.45;1.00;;;;;;;30.44;41.04;99358.91;4772552;30;20258;-94
2022/06/04 10:32:32;;;;;;;1.05;0.90;;;;;;;30.64;39.10;99366.16;4760402;29;20242;-94
2022/06/04 10:35:34;;;;;;;2.13;1.00;;;;;;;30.84;38.71;99353.97;4765228;30;20243;-95
2022/06/04 10:38:39;;;;;;;3.28;1.02;;;;;;;30.72;37.94;99353.28;4761507;29;20244;-92
2022/06/04 10:41:31;;;;;;;1.55;0.90;;;;;;;30.86;38.13;99364.66;4733139;30;20244;-94
2022/06/04 10:44:04;;;;;;;3.03;0.82;;;;;;;30.80;37.35;99358.63;4779371;30;20239;-93
2022/06/04 10:46:40;;;;;;;1.90;1.00;;;;;;;30.81;35.68;99345.59;4772616;30;20235;-92
2022/06/04 10:49:42;;;;;;;1.20;0.70;;;;;;;30.85;37.53;99352.81;4782570;29;20252;-92
2022/06/04 10:52:41;;;;;;;2.75;1.10;;;;;;;30.79;38.21;99356.22;4755612;29;20277;-93
2022/06/04 10:55:31;;;;;;;2.80;1.10;;;;;;;30.80;36.99;99353.09;4756971;30;20239;-92
2022/06/04 10:58:23;;;;;;;4.47;1.20;;;;;;;31.06;38.12;99348.94;4752843;30;20232;-93
2022/06/04 11:00:59;;;;;;;2.40;1.17;;;;;;;31.02;37.43;99348.88;4770598;30;20247;-92
2022/06/04 11:03:53;;;;;;;1.60;1.00;;;;;;;31.28;36.88;99349.03;4752108;30;20325;-93
2022/06/04 11:06:29;;;;;;;3.15;1.10;;;;;;;31.47;35.66;99353.75;4752608;29;20994;-91
2022/06/04 11:09:12;;;;;;;2.53;1.00;;;;;;;31.20;37.06;99339.00;4769560;29;20235;-92
2022/06/04 11:11:54;;;;;;;2.90;1.30;;;;;;;31.07;36.54;99351.34;4754425;30;20236;-93
2022/06/04 11:14:37;;;;;;;1.67;0.95;;;;;;;31.10;37.17;99338.75;4755540;29;20235;-93
2022/06/04 11:17:16;;;;;;;1.88;1.13;;;;;;;31.20;36.64;99330.69;4756267;30;20326;-93
2022/06/04 11:20:04;;;;;;;2.03;0.80;;;;;;;31.10;37.17;99330.44;4742875;30;20243;-93
2022/06/04 11:22:37;;;;;;;1.98;1.02;;;;;;;31.23;36.59;99338.25;4756267;30;20239;-93
2022/06/04 11:25:27;;;;;;;3.05;1.30;;;;;;;31.30;37.00;99345.91;4739667;30;20227;-93
2022/06/04 11:27:57;;;;;;;1.48;1.02;;;;;;;31.24;37.03;99334.31;4755940;30;20261;-92
2022/06/04 11:31:06;;;;;;;2.72;1.38;;;;;;;31.24;37.09;99331.56;4755877;29;20236;-93
2022/06/04 11:33:45;;;;;;;1.58;1.20;;;;;;;31.15;35.47;99327.41;4765517;30;20238;-92
2022/06/04 11:36:36;;;;;;;1.23;0.90;;;;;;;31.33;33.22;99332.13;4766635;30;20255;-92
2022/06/04 11:39:36;;;;;;;2.30;1.30;;;;;;;31.25;35.98;99318.53;4755905;30;20962;-92
2022/06/04 11:42:26;;;;;;;1.38;1.10;;;;;;;31.39;35.98;99333.44;4753189;30;20243;-92
2022/06/04 11:45:36;;;;;;;1.33;0.98;;;;;;;31.36;35.41;99328.63;4753646;30;20246;-91
2022/06/04 11:48:24;;;;;;;2.20;1.20;;;;;;;31.56;35.63;99336.94;4749192;30;20246;-91
2022/06/04 11:51:28;;;;;;;1.65;1.15;;;;;;;31.43;35.68;99325.22;4752010;30;20332;-92
2022/06/04 11:53:58;;;;;;;1.88;0.93;;;;;;;31.56;34.23;99334.19;4767220;30;20330;-93
2022/06/04 11:56:36;;;;;;;1.30;0.93;;;;;;;31.55;34.48;99327.00;4768694;30;20235;-94
2022/06/04 11:59:32;;;;;;;2.30;1.10;;;;;;;31.64;32.53;99314.56;4754805;30;20325;-93
2022/06/04 12:02:14;;;;;;;3.17;1.40;;;;;;;31.77;32.35;99304.13;4764603;30;20265;-93
2022/06/04 12:05:03;;;;;;;4.03;1.30;;;;;;;31.66;31.77;99309.47;4763460;30;20296;-92
2022/06/04 12:07:36;;;;;;;4.28;1.20;;;;;;;31.84;33.15;99310.59;4772270;29;20335;-93
2022/06/04 12:10:08;;;;;;;3.88;1.20;;;;;;;31.95;32.45;99315.53;4770017;29;20232;-93
2022/06/04 12:12:48;;;;;;;2.40;1.25;;;;;;;32.00;31.33;99310.47;4764370;29;20239;-93